Time;durP1;ratioP1;P1;durP2;ratioP2;P2;SDS_P1;SDS_P2;PMS_P1;PMS_P2;Temp;Humidity;BMP_temperature;BMP_pressure;BME280_temperature;BME280_humidity;BME280_pressure;Samples;Min_cycle;Max_cycle;Signal;HPM_P1;HPM_P2
2022/06/12 00:00:21;;;;;;;10.82;3.33;;;12.00;99.90;;;;;;4970752;28;20438;-89
2022/06/12 00:02:47;;;;;;;9.73;3.60;;;11.90;99.90;;;;;;4971186;28;20564;-90
2022/06/12 00:05:16;;;;;;;8.85;3.30;;;11.90;99.90;;;;;;4983498;28;20046;-90
2022/06/12 00:07:42;;;;;;;8.48;3.45;;;11.80;99.90;;;;;;4967713;28;20516;-89
2022/06/12 00:10:10;;;;;;;8.20;3.22;;;11.80;99.90;;;;;;4977162;28;20035;-91
2022/06/12 00:12:37;;;;;;;7.90;3.67;;;11.80;99.90;;;;;;4966262;28;20038;-89
2022/06/12 00:15:05;;;;;;;7.55;3.10;;;11.80;99.90;;;;;;4978276;28;20054;-90
2022/06/12 00:17:30;;;;;;;8.90;3.00;;;11.80;99.90;;;;;;4983032;28;20486;-90
2022/06/12 00:19:56;;;;;;;8.30;3.05;;;11.80;99.90;;;;;;4979600;28;20073;-90
2022/06/12 00:22:22;;;;;;;8.32;3.20;;;11.80;99.90;;;;;;4979248;28;20043;-89
2022/06/12 00:24:51;;;;;;;8.30;3.55;;;11.70;99.90;;;;;;4981440;28;20269;-90
2022/06/12 00:27:17;;;;;;;8.13;3.10;;;11.70;99.90;;;;;;4979111;28;20043;-90
2022/06/12 00:29:44;;;;;;;7.40;3.10;;;11.70;99.90;;;;;;4965979;28;20142;-90
2022/06/12 00:32:16;;;;;;;9.70;3.50;;;11.60;99.90;;;;;;4948329;28;20049;-90
2022/06/12 00:34:49;;;;;;;8.38;3.17;;;11.60;99.90;;;;;;4980899;28;20046;-89
2022/06/12 00:37:18;;;;;;;11.10;4.35;;;11.60;99.90;;;;;;4979032;28;20053;-89
2022/06/12 00:39:46;;;;;;;9.07;3.28;;;11.60;99.90;;;;;;4964096;28;20498;-89
2022/06/12 00:42:41;;;;;;;10.10;3.50;;;11.60;99.90;;;;;;4949821;28;20415;-90
2022/06/12 00:45:29;;;;;;;8.18;3.20;;;11.50;99.90;;;;;;4985284;28;20050;-90
2022/06/12 00:47:57;;;;;;;9.65;3.30;;;11.50;99.90;;;;;;4983667;28;22194;-90
2022/06/12 00:50:23;;;;;;;9.05;3.78;;;11.50;99.90;;;;;;4980567;28;20070;-89
2022/06/12 00:52:53;;;;;;;8.82;3.60;;;11.50;99.90;;;;;;4967987;28;20132;-89
2022/06/12 00:55:41;;;;;;;7.20;3.47;;;11.50;99.90;;;;;;4966660;28;20474;-90
2022/06/12 00:58:11;;;;;;;10.05;3.65;;;11.50;99.90;;;;;;4993032;28;20058;-90
2022/06/12 01:00:38;;;;;;;7.38;3.28;;;11.40;99.90;;;;;;4966242;28;20284;-90
2022/06/12 01:03:04;;;;;;;7.80;3.25;;;11.50;99.90;;;;;;4969120;28;20200;-89
2022/06/12 01:08:21;;;;;;;10.05;3.30;;;11.40;99.90;;;;;;4992089;28;20045;-89
2022/06/12 01:10:50;;;;;;;7.30;3.50;;;11.50;99.90;;;;;;4992824;28;20106;-89
2022/06/12 01:13:25;;;;;;;8.85;3.55;;;11.40;99.90;;;;;;4966577;28;20101;-89
2022/06/12 01:15:55;;;;;;;12.27;3.90;;;11.40;99.90;;;;;;4962245;28;20039;-89
2022/06/12 01:18:26;;;;;;;10.27;3.95;;;11.50;99.90;;;;;;4964722;28;20431;-89
2022/06/12 01:20:57;;;;;;;9.90;3.63;;;11.50;99.90;;;;;;4964908;28;20125;-89
2022/06/12 01:23:23;;;;;;;8.75;3.25;;;11.40;99.90;;;;;;4966484;28;20034;-89
2022/06/12 01:25:55;;;;;;;7.55;3.38;;;11.50;99.90;;;;;;4975926;28;20030;-89
2022/06/12 01:28:34;;;;;;;8.63;3.30;;;11.40;99.90;;;;;;4992479;28;20118;-87
2022/06/12 01:31:08;;;;;;;8.63;3.47;;;11.40;99.90;;;;;;4960964;28;20350;-89
2022/06/12 01:33:39;;;;;;;9.30;3.78;;;11.40;99.90;;;;;;4964653;28;20351;-88
2022/06/12 01:36:07;;;;;;;9.93;3.45;;;11.40;99.90;;;;;;4978533;28;20053;-90
2022/06/12 01:38:52;;;;;;;15.38;3.80;;;11.30;99.90;;;;;;4949250;28;20535;-89
2022/06/12 01:41:33;;;;;;;8.00;3.45;;;11.30;99.90;;;;;;4964018;28;20129;-89
2022/06/12 01:44:18;;;;;;;7.80;3.28;;;11.30;99.90;;;;;;4989108;28;22096;-89
2022/06/12 01:46:54;;;;;;;7.82;3.38;;;11.30;99.90;;;;;;4976517;28;20046;-88
2022/06/12 01:49:37;;;;;;;9.55;3.95;;;11.30;99.90;;;;;;4959545;28;20158;-89
2022/06/12 01:52:46;;;;;;;11.15;3.70;;;11.30;99.90;;;;;;4989988;28;20042;-89
2022/06/12 01:55:58;;;;;;;11.02;3.80;;;11.30;99.90;;;;;;4956798;28;20051;-89
2022/06/12 01:58:34;;;;;;;8.48;3.22;;;11.30;99.90;;;;;;4951421;28;20038;-89
2022/06/12 02:01:15;;;;;;;9.80;3.50;;;11.30;99.90;;;;;;4938506;28;20168;-89
2022/06/12 02:03:49;;;;;;;7.82;3.30;;;11.30;99.90;;;;;;4960425;28;20448;-89
2022/06/12 02:06:33;;;;;;;14.07;4.00;;;11.30;99.90;;;;;;4949343;28;20094;-89
2022/06/12 02:09:15;;;;;;;11.00;4.03;;;11.30;99.90;;;;;;4964678;28;20490;-88
2022/06/12 02:15:09;;;;;;;11.05;3.80;;;11.30;99.90;;;;;;4962241;28;20035;-89
2022/06/12 02:18:02;;;;;;;8.55;3.60;;;11.30;99.90;;;;;;4963154;28;20125;-89
2022/06/12 02:20:35;;;;;;;11.20;3.47;;;11.30;99.90;;;;;;4975354;28;20158;-90
2022/06/12 02:23:08;;;;;;;8.90;3.45;;;11.30;1.00;;;;;;4968127;28;20181;-88
2022/06/12 02:25:38;;;;;;;7.53;3.22;;;11.30;99.90;;;;;;4979334;28;20485;-90
2022/06/12 02:28:15;;;;;;;13.52;3.70;;;11.30;99.90;;;;;;4967755;28;20428;-89
2022/06/12 02:30:46;;;;;;;9.75;3.80;;;11.30;1.00;;;;;;4962047;28;20041;-89
2022/06/12 02:33:24;;;;;;;10.75;3.35;;;11.30;1.00;;;;;;4945715;28;20071;-88
2022/06/12 02:36:14;;;;;;;10.85;3.40;;;11.30;1.00;;;;;;4957649;28;20069;-89
2022/06/12 02:38:48;;;;;;;9.07;3.55;;;11.30;1.00;;;;;;4962063;28;20036;-89
2022/06/12 02:41:37;;;;;;;8.63;3.40;;;11.30;99.90;;;;;;4961465;28;20046;-89
2022/06/12 02:44:11;;;;;;;9.07;3.60;;;11.30;99.90;;;;;;4989005;28;20468;-89
2022/06/12 02:46:49;;;;;;;9.57;3.22;;;11.20;99.90;;;;;;4971446;28;20042;-89
2022/06/12 02:49:16;;;;;;;9.93;3.17;;;11.20;99.90;;;;;;4962587;28;20042;-89
2022/06/12 02:52:05;;;;;;;9.60;3.05;;;11.20;99.90;;;;;;4974657;28;20150;-89
2022/06/12 02:54:32;;;;;;;8.73;3.63;;;11.30;99.90;;;;;;4950092;28;20444;-89
2022/06/12 02:57:22;;;;;;;10.35;3.33;;;11.30;99.90;;;;;;4966928;28;20407;-90
2022/06/12 03:00:06;;;;;;;8.07;3.10;;;11.30;99.90;;;;;;4961059;28;20309;-89
2022/06/12 03:02:35;;;;;;;11.05;3.45;;;11.30;1.00;;;;;;4965074;28;20043;-90
2022/06/12 03:05:33;;;;;;;12.02;3.47;;;11.30;99.90;;;;;;4979176;28;20042;-89
2022/06/12 03:08:09;;;;;;;7.25;3.15;;;11.30;99.90;;;;;;4962877;28;20051;-89
2022/06/12 03:10:48;;;;;;;6.72;3.00;;;11.20;99.90;;;;;;4964621;28;20043;-89
2022/06/12 03:13:16;;;;;;;7.68;3.08;;;11.20;99.90;;;;;;4993043;28;20506;-89
2022/06/12 03:15:53;;;;;;;5.68;2.88;;;11.30;99.90;;;;;;4963194;28;20046;-89
2022/06/12 03:18:27;;;;;;;7.07;2.95;;;11.30;99.90;;;;;;4988503;28;20041;-89
2022/06/12 03:21:26;;;;;;;12.10;3.28;;;11.30;1.00;;;;;;4991559;28;20058;-90
2022/06/12 03:24:09;;;;;;;12.13;3.35;;;11.30;1.00;;;;;;4982355;28;20045;-90
2022/06/12 03:26:58;;;;;;;10.55;2.90;;;11.30;1.00;;;;;;4988098;28;20484;-89
2022/06/12 03:29:53;;;;;;;7.07;2.90;;;11.30;99.90;;;;;;4975941;28;20042;-89
2022/06/12 03:32:29;;;;;;;7.78;3.00;;;11.40;1.00;;;;;;4992742;28;20117;-89
2022/06/12 03:35:18;;;;;;;9.32;3.22;;;11.40;99.90;;;;;;4979906;28;20049;-87
2022/06/12 03:37:56;;;;;;;14.05;3.20;;;11.40;1.00;;;;;;4956564;28;20050;-90
2022/06/12 03:40:59;;;;;;;8.02;3.03;;;11.50;99.90;;;;;;4972564;28;20050;-90
2022/06/12 03:43:31;;;;;;;5.18;2.47;;;11.50;99.90;;;;;;4987236;28;20051;-89
2022/06/12 03:46:02;;;;;;;9.07;3.03;;;11.50;99.90;;;;;;4973730;28;20054;-90
2022/06/12 03:48:38;;;;;;;10.80;3.05;;;11.60;99.90;;;;;;4961203;28;20169;-89
2022/06/12 03:51:04;;;;;;;7.60;2.80;;;11.60;99.90;;;;;;4991454;28;20154;-89
2022/06/12 03:53:35;;;;;;;11.38;2.58;;;11.60;99.90;;;;;;4977263;28;20042;-89
2022/06/12 03:59:07;;;;;;;7.43;2.45;;;11.70;99.90;;;;;;4990622;28;20050;-90
2022/06/12 04:01:33;;;;;;;10.00;3.10;;;11.80;99.90;;;;;;4988936;28;20065;-90
2022/06/12 04:04:00;;;;;;;9.95;3.22;;;11.90;99.90;;;;;;4948240;28;20054;-90
2022/06/12 04:06:29;;;;;;;7.95;2.90;;;11.90;99.90;;;;;;4965688;28;20058;-89
2022/06/12 04:09:04;;;;;;;8.98;2.88;;;12.00;99.90;;;;;;4963753;28;20039;-89
2022/06/12 04:11:32;;;;;;;;;;;12.00;99.90;;;;;;4977083;28;20175;-89
2022/06/12 04:14:01;;;;;;;7.93;2.55;;;12.10;99.90;;;;;;4966787;28;19992;-90
2022/06/12 04:16:40;;;;;;;6.28;2.47;;;12.20;99.90;;;;;;4962270;28;20058;-89
2022/06/12 04:19:15;;;;;;;8.32;2.95;;;12.20;99.90;;;;;;4961170;28;20188;-89
2022/06/12 04:22:00;;;;;;;6.50;2.55;;;12.30;99.90;;;;;;4964445;28;20053;-90
2022/06/12 04:24:36;;;;;;;9.20;2.80;;;12.50;99.90;;;;;;4962436;28;20130;-89
2022/06/12 04:27:17;;;;;;;6.82;3.08;;;12.50;99.90;;;;;;4960092;28;20513;-89
2022/06/12 04:30:21;;;;;;;9.63;2.58;;;12.60;99.90;;;;;;4963911;28;20156;-90
2022/06/12 04:32:54;;;;;;;9.70;3.10;;;12.60;99.90;;;;;;4977325;28;20051;-90
2022/06/12 04:35:20;;;;;;;10.93;2.85;;;12.80;99.90;;;;;;4976307;28;20580;-90
2022/06/12 04:37:45;;;;;;;8.30;3.17;;;12.90;99.90;;;;;;4962508;28;20117;-89
2022/06/12 04:40:23;;;;;;;8.88;3.10;;;13.00;99.90;;;;;;4978123;28;20039;-90
2022/06/12 04:42:49;;;;;;;9.18;2.67;;;13.10;99.90;;;;;;4946176;28;20034;-90
2022/06/12 04:45:14;;;;;;;7.28;2.80;;;13.10;99.90;;;;;;4963393;28;20410;-90
2022/06/12 04:47:40;;;;;;;10.70;3.33;;;13.20;99.90;;;;;;4977429;28;20051;-88
2022/06/12 04:50:09;;;;;;;8.73;3.33;;;13.30;99.90;;;;;;4961961;28;20075;-89
2022/06/12 04:52:37;;;;;;;11.02;3.22;;;13.30;99.90;;;;;;4959952;28;20050;-90
2022/06/12 04:55:03;;;;;;;9.40;3.13;;;13.40;99.90;;;;;;4974250;28;20415;-90
2022/06/12 04:57:29;;;;;;;10.10;2.92;;;13.50;99.90;;;;;;4958501;28;20042;-89
2022/06/12 04:59:55;;;;;;;11.60;2.88;;;13.60;99.90;;;;;;4963478;28;20280;-90
2022/06/12 05:02:23;;;;;;;10.38;3.08;;;13.70;99.90;;;;;;4958579;28;20467;-90
2022/06/12 05:04:49;;;;;;;8.43;3.03;;;13.60;99.90;;;;;;4959233;28;20283;-89
2022/06/12 05:07:15;;;;;;;8.63;3.35;;;13.70;99.90;;;;;;4975496;28;20042;-90
2022/06/12 05:09:42;;;;;;;12.52;3.50;;;13.80;99.90;;;;;;4974717;28;20205;-89
2022/06/12 05:12:12;;;;;;;11.88;3.40;;;13.90;99.90;;;;;;4989632;28;20070;-90
2022/06/12 05:14:38;;;;;;;8.82;3.17;;;14.00;99.90;;;;;;4976410;28;20049;-90
2022/06/12 05:17:11;;;;;;;11.40;3.38;;;14.10;99.90;;;;;;4960047;28;20449;-90
2022/06/12 05:19:38;;;;;;;9.48;3.47;;;14.10;99.90;;;;;;4959783;28;20169;-90
2022/06/12 05:22:07;;;;;;;8.35;3.20;;;14.30;99.90;;;;;;4975440;28;20081;-90
2022/06/12 05:24:34;;;;;;;8.85;2.88;;;14.30;99.90;;;;;;4991036;28;20424;-89
2022/06/12 05:27:01;;;;;;;10.35;3.25;;;14.40;99.90;;;;;;4974562;28;20464;-90
2022/06/12 05:29:31;;;;;;;12.15;3.47;;;14.40;99.90;;;;;;4960336;28;20512;-90
2022/06/12 05:31:57;;;;;;;8.45;3.30;;;14.50;99.90;;;;;;4976592;28;20462;-89
2022/06/12 05:34:25;;;;;;;9.57;3.20;;;14.60;99.90;;;;;;4960515;28;20043;-90
2022/06/12 05:36:52;;;;;;;8.07;3.38;;;14.70;99.90;;;;;;4974471;28;21067;-90
2022/06/12 05:39:19;;;;;;;12.13;3.63;;;14.80;99.90;;;;;;4985612;28;20038;-90
2022/06/12 05:41:45;;;;;;;13.48;3.95;;;14.70;99.90;;;;;;4946945;28;20050;-90
2022/06/12 05:44:13;;;;;;;10.45;3.63;;;14.80;99.90;;;;;;4975746;28;20058;-90
2022/06/12 05:46:39;;;;;;;15.50;4.30;;;14.90;99.90;;;;;;4978443;28;20047;-90
2022/06/12 05:49:06;;;;;;;8.25;3.28;;;15.00;99.90;;;;;;4975531;28;20138;-90
2022/06/12 05:51:33;;;;;;;9.52;4.00;;;15.00;99.90;;;;;;4962452;28;20336;-90
2022/06/12 05:53:59;;;;;;;12.38;4.18;;;15.10;99.90;;;;;;4965139;28;20038;-90
2022/06/12 05:56:28;;;;;;;13.07;4.00;;;15.10;99.90;;;;;;4965111;28;20043;-90
2022/06/12 05:58:55;;;;;;;16.70;3.92;;;15.10;99.90;;;;;;4961488;28;20039;-90
2022/06/12 06:01:22;;;;;;;10.75;3.83;;;15.30;99.90;;;;;;4972636;28;20348;-90
2022/06/12 06:03:49;;;;;;;13.00;4.28;;;15.30;99.90;;;;;;4972171;28;20534;-90
2022/06/12 06:06:20;;;;;;;18.25;3.83;;;15.40;99.90;;;;;;4978167;28;20139;-90
2022/06/12 06:08:46;;;;;;;14.10;3.67;;;15.50;99.90;;;;;;4964191;28;20051;-90
2022/06/12 06:11:11;;;;;;;10.90;4.20;;;15.60;99.90;;;;;;4958855;28;20034;-90
2022/06/12 06:13:37;;;;;;;17.55;4.80;;;15.60;99.90;;;;;;4969403;28;20081;-90
2022/06/12 06:16:03;;;;;;;18.48;5.28;;;15.60;99.90;;;;;;4959878;28;20078;-90
2022/06/12 06:18:29;;;;;;;15.20;4.88;;;15.80;99.90;;;;;;4979135;28;20050;-90
2022/06/12 06:20:55;;;;;;;11.30;4.32;;;15.80;99.90;;;;;;4965288;28;20297;-90
2022/06/12 06:23:23;;;;;;;12.75;4.40;;;15.90;99.90;;;;;;4945451;28;20047;-90
2022/06/12 06:25:49;;;;;;;14.77;4.53;;;16.00;99.90;;;;;;4940170;28;20062;-90
2022/06/12 06:28:15;;;;;;;14.50;4.80;;;16.10;99.90;;;;;;4961832;28;20178;-90
2022/06/12 06:30:42;;;;;;;17.30;4.70;;;16.10;99.90;;;;;;4963421;28;20072;-90
2022/06/12 06:33:08;;;;;;;13.10;4.70;;;16.30;99.90;;;;;;4960734;28;20150;-90
2022/06/12 06:35:35;;;;;;;13.48;4.57;;;16.30;99.90;;;;;;4987814;28;20406;-90
2022/06/12 06:38:01;;;;;;;15.80;5.95;;;16.40;99.90;;;;;;4973911;28;20074;-90
2022/06/12 06:40:29;;;;;;;15.70;4.82;;;16.50;99.90;;;;;;4963255;28;20719;-90
2022/06/12 06:42:54;;;;;;;18.52;4.75;;;16.70;99.90;;;;;;4971344;28;20348;-90
2022/06/12 06:48:11;;;;;;;18.65;4.88;;;16.80;99.90;;;;;;4961480;28;20340;-91
2022/06/12 06:50:38;;;;;;;16.45;4.65;;;16.90;99.90;;;;;;4975293;28;20050;-90
2022/06/12 06:53:05;;;;;;;18.08;5.28;;;17.10;99.90;;;;;;4958989;28;20078;-90
2022/06/12 06:55:33;;;;;;;20.15;5.25;;;17.20;99.90;;;;;;4968317;28;20049;-89
2022/06/12 06:58:09;;;;;;;13.70;4.97;;;17.20;99.90;;;;;;4946036;28;20533;-91
2022/06/12 07:00:36;;;;;;;17.13;5.35;;;17.20;99.90;;;;;;4974187;28;20077;-89
2022/06/12 07:03:02;;;;;;;18.98;5.55;;;17.30;99.90;;;;;;4958889;28;20057;-90
2022/06/12 07:05:29;;;;;;;17.02;5.25;;;17.40;99.90;;;;;;4960522;28;20089;-91
2022/06/12 07:07:55;;;;;;;20.98;4.85;;;17.40;99.90;;;;;;4959066;28;20054;-91
2022/06/12 07:10:24;;;;;;;18.80;5.40;;;17.60;99.90;;;;;;4972784;28;20042;-90
2022/06/12 07:12:55;;;;;;;17.02;4.93;;;17.60;99.90;;;;;;4971750;28;20050;-91
2022/06/12 07:15:22;;;;;;;15.05;4.80;;;17.80;99.90;;;;;;4972499;28;20077;-90
2022/06/12 07:17:48;;;;;;;18.42;4.78;;;17.80;99.90;;;;;;4958422;28;20171;-91
2022/06/12 07:20:18;;;;;;;18.27;4.80;;;18.00;99.90;;;;;;4974202;28;20047;-90
2022/06/12 07:22:47;;;;;;;19.38;5.57;;;18.10;99.90;;;;;;4957751;28;20078;-89
2022/06/12 07:25:13;;;;;;;16.30;4.82;;;18.20;99.90;;;;;;4977190;28;20059;-91
2022/06/12 07:27:40;;;;;;;19.30;5.00;;;18.20;99.90;;;;;;4981183;28;20046;-91
2022/06/12 07:30:10;;;;;;;15.73;4.85;;;18.40;99.90;;;;;;4969770;28;20039;-91
2022/06/12 07:32:35;;;;;;;17.27;5.25;;;18.50;99.90;;;;;;4961946;28;20561;-91
2022/06/12 07:35:03;;;;;;;15.30;4.25;;;18.50;99.90;;;;;;4967477;28;20043;-91
2022/06/12 07:37:30;;;;;;;19.48;5.72;;;18.60;99.90;;;;;;4971081;28;20074;-90
2022/06/12 07:39:56;;;;;;;14.63;4.55;;;18.70;99.90;;;;;;4966439;28;20327;-91
2022/06/12 07:42:22;;;;;;;13.60;4.38;;;18.70;99.90;;;;;;4964592;28;20045;-91
2022/06/12 07:44:48;;;;;;;16.55;4.75;;;18.70;99.90;;;;;;4952419;28;20197;-91
2022/06/12 07:47:14;;;;;;;12.30;3.83;;;18.80;99.90;;;;;;4993619;28;20061;-90
2022/06/12 07:49:40;;;;;;;15.93;3.80;;;18.90;90.80;;;;;;4970574;28;20324;-91
2022/06/12 07:52:08;;;;;;;19.20;4.65;;;19.00;99.90;;;;;;4963143;28;20313;-90
2022/06/12 07:54:36;;;;;;;17.60;4.75;;;19.10;99.90;;;;;;4967352;28;20042;-91
2022/06/12 07:57:03;;;;;;;14.05;4.20;;;19.20;93.10;;;;;;4964930;28;20042;-90
2022/06/12 07:59:29;;;;;;;12.05;3.83;;;19.20;99.90;;;;;;4965203;28;20043;-91
2022/06/12 08:01:56;;;;;;;16.50;4.07;;;19.40;73.00;;;;;;4965167;28;20185;-90
2022/06/12 08:04:23;;;;;;;18.40;4.72;;;19.60;84.60;;;;;;4966079;28;20058;-91
2022/06/12 08:06:49;;;;;;;14.35;4.20;;;19.50;70.30;;;;;;4980519;28;20094;-89
2022/06/12 08:09:16;;;;;;;14.40;4.05;;;19.40;33.70;;;;;;4967979;28;20430;-90
2022/06/12 08:11:44;;;;;;;14.75;3.92;;;19.30;95.20;;;;;;4964355;28;20045;-90
2022/06/12 08:14:11;;;;;;;11.52;3.65;;;19.40;91.30;;;;;;4966808;28;20039;-90
2022/06/12 08:16:39;;;;;;;16.77;4.13;;;19.70;40.10;;;;;;4995813;28;20049;-91
2022/06/12 08:20:24;;;;;;;17.10;4.13;;;19.70;39.60;;;;;;4966389;28;20046;-89
2022/06/12 08:21:51;;;;;;;12.38;3.63;;;19.90;16.90;;;;;;4965348;28;20046;-90
2022/06/12 08:24:17;;;;;;;13.70;4.18;;;20.10;7.30;;;;;;4966956;28;20053;-90
2022/06/12 08:26:43;;;;;;;12.98;3.60;;;20.30;29.00;;;;;;4964535;28;20058;-90
2022/06/12 08:29:11;;;;;;;10.65;2.83;;;20.30;9.80;;;;;;4964782;28;20211;-91
2022/06/12 08:31:36;;;;;;;12.40;3.60;;;20.10;1.00;;;;;;4978788;28;20039;-90
2022/06/12 08:34:07;;;;;;;12.98;3.47;;;20.20;11.50;;;;;;4964044;28;20402;-90
2022/06/12 08:36:34;;;;;;;10.45;3.80;;;20.10;23.10;;;;;;4977420;28;20063;-91
2022/06/12 08:39:00;;;;;;;13.57;3.33;;;19.90;97.80;;;;;;4971576;28;20162;-90
2022/06/12 08:41:39;;;;;;;8.57;2.92;;;20.20;1.00;;;;;;4962177;28;20062;-91
2022/06/12 08:44:27;;;;;;;14.98;4.57;;;20.70;1.00;;;;;;4987748;28;20584;-91
2022/06/12 08:47:04;;;;;;;13.55;3.50;;;21.00;79.90;;;;;;4962402;28;20042;-91
2022/06/12 08:50:11;;;;;;;13.65;3.67;;;21.70;3.50;;;;;;4962653;28;20461;-92
2022/06/12 08:52:51;;;;;;;14.55;3.75;;;21.80;1.00;;;;;;4949037;28;20289;-92
2022/06/12 08:55:46;;;;;;;13.88;3.63;;;21.60;1.00;;;;;;4978026;28;20039;-92
2022/06/12 08:58:12;;;;;;;15.10;4.10;;;21.70;1.00;;;;;;4995762;28;20120;-91
2022/06/12 09:00:39;;;;;;;12.80;3.80;;;21.70;1.00;;;;;;4953575;28;20055;-89
2022/06/12 09:03:15;;;;;;;13.90;3.70;;;22.00;1.00;;;;;;4957140;28;20042;-90
2022/06/12 09:05:59;;;;;;;16.50;4.38;;;22.20;1.00;;;;;;4980031;28;20196;-91
2022/06/12 09:08:36;;;;;;;14.10;3.85;;;21.90;1.00;;;;;;4961303;28;20046;-91
2022/06/12 09:11:22;;;;;;;12.55;3.58;;;22.20;1.00;;;;;;4963694;28;20118;-90
2022/06/12 09:14:09;;;;;;;15.80;3.67;;;21.90;1.00;;;;;;4977016;28;20106;-92
2022/06/12 09:17:06;;;;;;;9.85;3.25;;;21.60;1.00;;;;;;4989861;28;20046;-93
2022/06/12 09:19:53;;;;;;;14.02;3.50;;;22.40;1.00;;;;;;4991139;28;20703;-91
2022/06/12 09:22:38;;;;;;;13.20;3.67;;;22.40;1.00;;;;;;4988318;28;20194;-91
2022/06/12 09:25:46;;;;;;;12.13;3.20;;;21.70;1.00;;;;;;4963254;28;20122;-91
2022/06/12 09:28:43;;;;;;;11.20;3.58;;;21.40;1.00;;;;;;4991400;28;20540;-89
2022/06/12 09:31:31;;;;;;;10.88;3.20;;;21.00;1.00;;;;;;4962388;28;20419;-88
2022/06/12 09:34:00;;;;;;;7.95;3.13;;;21.20;1.00;;;;;;4972925;28;20054;-89
2022/06/12 09:37:00;;;;;;;13.38;3.30;;;20.80;1.00;;;;;;4976762;28;20039;-90
2022/06/12 09:39:47;;;;;;;13.23;3.20;;;20.50;1.00;;;;;;4988845;28;20784;-89
2022/06/12 09:42:31;;;;;;;11.00;2.90;;;20.70;1.00;;;;;;4977163;28;20994;-91
2022/06/12 09:45:21;;;;;;;8.00;2.97;;;20.60;1.00;;;;;;4945178;28;20051;-89
2022/06/12 09:47:54;;;;;;;8.05;2.83;;;20.40;1.00;;;;;;4963896;28;20169;-91
2022/06/12 09:50:52;;;;;;;13.13;3.42;;;20.50;1.00;;;;;;4976592;28;20221;-90
2022/06/12 09:53:53;;;;;;;9.98;2.83;;;20.10;1.00;;;;;;4993669;28;20045;-93
2022/06/12 09:56:24;;;;;;;7.95;2.78;;;20.40;1.00;;;;;;4965236;28;20046;-89
2022/06/12 09:59:05;;;;;;;8.25;2.90;;;21.00;1.00;;;;;;4951535;28;20053;-89
2022/06/12 10:01:37;;;;;;;9.82;2.97;;;20.90;1.00;;;;;;4964564;28;20058;-90
2022/06/12 10:04:20;;;;;;;7.70;3.00;;;21.00;1.00;;;;;;4988102;28;20046;-90
2022/06/12 10:06:52;;;;;;;7.95;2.65;;;21.30;1.00;;;;;;4966817;28;20057;-88
2022/06/12 10:09:20;;;;;;;7.97;2.47;;;22.00;1.00;;;;;;4989181;28;20051;-87
2022/06/12 10:12:12;;;;;;;6.78;2.30;;;22.30;1.00;;;;;;4962601;28;20043;-89
2022/06/12 10:14:43;;;;;;;5.10;2.10;;;22.30;1.00;;;;;;4950253;28;20050;-89
2022/06/12 10:17:34;;;;;;;5.38;2.30;;;22.40;1.00;;;;;;4987014;28;20039;-89
2022/06/12 10:20:11;;;;;;;6.25;2.17;;;21.70;1.00;;;;;;4961647;28;20038;-88
2022/06/12 10:22:47;;;;;;;6.25;2.00;;;21.40;1.00;;;;;;4966969;28;20061;-87
2022/06/12 10:25:19;;;;;;;6.20;2.10;;;21.10;99.90;;;;;;4959346;28;20051;-88
2022/06/12 10:27:55;;;;;;;6.63;2.05;;;20.70;99.90;;;;;;4962139;28;20058;-89
2022/06/12 10:30:29;;;;;;;5.10;1.90;;;20.20;99.90;;;;;;4959995;28;20572;-87
2022/06/12 10:33:22;;;;;;;7.38;2.25;;;20.50;99.90;;;;;;4990286;28;20042;-88
2022/06/12 10:35:53;;;;;;;4.25;1.77;;;21.50;1.00;;;;;;4961900;28;20066;-89
2022/06/12 10:38:27;;;;;;;4.78;1.92;;;22.10;1.00;;;;;;4961438;28;20644;-89
2022/06/12 10:41:01;;;;;;;3.90;1.75;;;21.90;99.90;;;;;;4975533;28;20042;-88
2022/06/12 10:43:29;;;;;;;6.07;2.00;;;21.90;99.90;;;;;;4972903;28;20069;-89
2022/06/12 10:45:59;;;;;;;6.18;1.67;;;21.80;99.90;;;;;;4946741;28;20181;-89
2022/06/12 10:48:32;;;;;;;6.53;1.92;;;21.50;99.90;;;;;;4963658;28;20039;-88
2022/06/12 10:51:13;;;;;;;5.78;2.05;;;21.30;99.90;;;;;;4973039;28;20353;-89
2022/06/12 10:53:40;;;;;;;5.15;1.83;;;21.30;99.90;;;;;;4960805;28;20081;-88
2022/06/12 10:56:27;;;;;;;4.35;1.63;;;21.60;99.90;;;;;;4974830;28;20046;-89
2022/06/12 10:59:04;;;;;;;5.25;2.05;;;21.80;99.90;;;;;;4983449;28;20134;-91
2022/06/12 11:02:12;;;;;;;7.05;2.30;;;21.90;99.90;;;;;;4971548;28;20043;-88
2022/06/12 11:04:50;;;;;;;4.65;1.92;;;21.10;99.90;;;;;;4940988;28;20058;-89
2022/06/12 11:07:35;;;;;;;8.30;2.20;;;20.20;99.90;;;;;;4960243;28;20078;-89
2022/06/12 11:10:20;;;;;;;;;;;20.60;99.90;;;;;;4959165;28;20109;-88
2022/06/12 11:13:07;;;;;;;4.13;1.80;;;20.70;99.90;;;;;;4984915;28;20321;-89
2022/06/12 11:16:12;;;;;;;4.60;1.60;;;20.90;99.90;;;;;;4985566;28;20437;-91
2022/06/12 11:19:06;;;;;;;3.40;1.70;;;21.70;99.90;;;;;;4974084;28;20232;-92
2022/06/12 11:21:50;;;;;;;5.50;1.65;;;22.00;99.90;;;;;;4991380;28;20043;-90
2022/06/12 11:24:18;;;;;;;6.13;2.10;;;22.90;99.90;;;;;;4964749;28;20049;-89
2022/06/12 11:26:52;;;;;;;6.60;2.00;;;21.70;99.90;;;;;;4988927;28;20054;-88
2022/06/12 11:29:40;;;;;;;6.43;2.10;;;21.00;99.90;;;;;;4961578;28;20046;-89
2022/06/12 11:32:15;;;;;;;4.68;1.80;;;20.60;99.90;;;;;;4987477;28;20458;-88
2022/06/12 11:35:18;;;;;;;4.13;1.77;;;20.20;99.90;;;;;;4974357;28;20039;-88
2022/06/12 11:37:55;;;;;;;4.32;1.80;;;20.40;99.90;;;;;;4985287;28;20054;-90
2022/06/12 11:40:32;;;;;;;4.68;2.10;;;21.30;99.90;;;;;;4986297;28;20236;-90
2022/06/12 11:43:20;;;;;;;3.85;1.77;;;20.90;99.90;;;;;;4957212;28;20073;-89
2022/06/12 11:45:46;;;;;;;6.25;1.90;;;20.90;99.90;;;;;;4968914;28;20054;-89
2022/06/12 11:48:22;;;;;;;6.03;2.58;;;20.90;99.90;;;;;;4959200;28;20042;-90
2022/06/12 11:51:06;;;;;;;5.65;1.77;;;21.30;99.90;;;;;;4987103;28;20043;-89
2022/06/12 11:53:46;;;;;;;7.68;2.00;;;21.30;99.90;;;;;;4963715;28;20435;-89
2022/06/12 11:56:21;;;;;;;7.18;2.10;;;21.80;99.90;;;;;;4987880;28;20038;-90
2022/06/12 11:58:58;;;;;;;8.77;2.38;;;21.20;99.90;;;;;;4948698;28;20148;-89
2022/06/12 12:01:47;;;;;;;5.40;1.95;;;20.80;99.90;;;;;;4964176;28;20105;-89
2022/06/12 12:04:34;;;;;;;6.25;1.90;;;20.70;99.90;;;;;;4971660;28;20602;-90
2022/06/12 12:07:22;;;;;;;5.18;1.88;;;20.20;99.90;;;;;;4971773;28;20201;-90
2022/06/12 12:10:18;;;;;;;4.50;2.00;;;21.10;99.90;;;;;;4960617;28;20082;-90
2022/06/12 12:12:48;;;;;;;7.70;2.38;;;21.80;99.90;;;;;;4988588;28;20517;-90
2022/06/12 12:15:20;;;;;;;4.53;2.15;;;21.50;99.90;;;;;;4969970;28;20136;-90
2022/06/12 12:17:48;;;;;;;3.80;1.90;;;20.90;99.90;;;;;;4960353;28;20186;-89
2022/06/12 12:20:38;;;;;;;4.60;1.50;;;21.50;99.90;;;;;;4962280;28;20054;-89
2022/06/12 12:23:11;;;;;;;6.03;2.08;;;21.40;99.90;;;;;;4959552;28;20051;-89
2022/06/12 12:25:56;;;;;;;6.07;1.95;;;20.60;99.90;;;;;;4947679;28;20047;-92
2022/06/12 12:28:42;;;;;;;5.68;2.00;;;20.30;99.90;;;;;;4956257;28;20098;-89
2022/06/12 12:31:15;;;;;;;5.22;1.73;;;20.90;99.90;;;;;;4965318;28;20299;-91
2022/06/12 12:33:47;;;;;;;7.90;1.83;;;20.70;99.90;;;;;;4966442;28;20027;-90
2022/06/12 12:41:56;;;;;;;4.13;1.45;;;21.30;99.90;;;;;;4978126;28;20058;-91
2022/06/12 12:44:35;;;;;;;4.68;1.90;;;21.40;99.90;;;;;;4952750;28;20082;-91
2022/06/12 12:47:02;;;;;;;5.43;1.17;;;22.10;99.90;;;;;;4975706;28;20545;-92
2022/06/12 12:49:34;;;;;;;4.38;1.50;;;21.60;99.90;;;;;;4964763;28;20042;-90
2022/06/12 12:52:14;;;;;;;4.53;1.60;;;21.90;99.90;;;;;;4979135;28;20125;-92
2022/06/12 12:54:55;;;;;;;6.63;1.60;;;22.00;99.90;;;;;;4976429;28;20046;-91
2022/06/12 12:57:40;;;;;;;4.75;1.83;;;22.60;99.90;;;;;;4975909;28;20038;-92
2022/06/12 13:00:23;;;;;;;5.25;1.80;;;22.00;99.90;;;;;;4963426;28;20152;-91
2022/06/12 13:02:54;;;;;;;5.22;1.73;;;21.90;99.90;;;;;;4975930;28;20592;-92
2022/06/12 13:05:30;;;;;;;5.05;1.95;;;21.80;99.90;;;;;;4975107;28;20475;-92
2022/06/12 13:08:27;;;;;;;3.97;1.48;;;22.00;99.90;;;;;;4989697;28;20050;-91
2022/06/12 13:11:19;;;;;;;3.88;1.30;;;22.30;99.90;;;;;;4961180;28;20114;-92
2022/06/12 13:14:38;;;;;;;6.15;1.67;;;22.80;99.90;;;;;;4977189;28;20070;-91
2022/06/12 13:17:34;;;;;;;6.20;1.63;;;22.70;99.90;;;;;;4978939;28;20043;-92
2022/06/12 13:20:12;;;;;;;6.80;1.60;;;23.00;99.90;;;;;;4977659;28;20116;-91
2022/06/12 13:23:02;;;;;;;8.25;2.20;;;23.10;99.90;;;;;;4980491;28;20190;-91
2022/06/12 13:25:37;;;;;;;5.15;1.98;;;22.60;99.90;;;;;;4988270;28;20062;-92
2022/06/12 13:28:03;;;;;;;5.47;1.75;;;22.40;99.90;;;;;;4964664;28;20051;-92
2022/06/12 13:30:34;;;;;;;6.35;2.20;;;22.10;99.90;;;;;;4965676;28;20046;-92
2022/06/12 13:33:18;;;;;;;8.40;2.40;;;21.50;99.90;;;;;;4978013;28;20046;-91
2022/06/12 13:35:50;;;;;;;6.55;2.30;;;21.20;99.90;;;;;;4963608;28;20058;-90
2022/06/12 13:38:20;;;;;;;4.57;1.77;;;21.60;99.90;;;;;;4980111;28;20035;-92
2022/06/12 13:41:06;;;;;;;6.68;1.90;;;20.50;99.90;;;;;;4991467;28;20096;-90
2022/06/12 13:43:40;;;;;;;5.20;2.40;;;20.80;99.90;;;;;;4969182;28;20133;-92